createdAt,value
2023-03-03T00:00:44.263Z,12.18
2023-03-03T00:03:12.344Z,12.20
2023-03-03T00:05:39.833Z,11.88
2023-03-03T00:08:08.562Z,11.25
2023-03-03T00:10:35.958Z,12.20
2023-03-03T00:13:03.408Z,12.30
2023-03-03T00:15:30.920Z,9.50
2023-03-03T00:17:58.291Z,10.57
2023-03-03T00:20:36.418Z,11.35
2023-03-03T00:23:27.468Z,12.38
2023-03-03T00:25:55.632Z,10.80
2023-03-03T00:28:27.946Z,11.93
2023-03-03T00:30:56.122Z,12.60
2023-03-03T00:33:28.885Z,10.77
2023-03-03T00:35:56.972Z,11.93
2023-03-03T00:38:24.505Z,11.73
2023-03-03T00:40:53.669Z,12.95
2023-03-03T00:43:22.036Z,11.10
2023-03-03T00:45:49.695Z,12.45
2023-03-03T00:48:24.933Z,11.38
2023-03-03T00:50:53.032Z,11.93
2023-03-03T00:53:21.140Z,11.10
2023-03-03T00:55:49.433Z,11.60
2023-03-03T00:58:18.452Z,10.30
2023-03-03T01:00:45.847Z,12.27
2023-03-03T01:03:14.925Z,10.73
2023-03-03T01:05:42.343Z,11.10
2023-03-03T01:08:09.724Z,9.25
2023-03-03T01:10:38.332Z,11.40
2023-03-03T01:13:05.819Z,10.52
2023-03-03T01:15:34.574Z,12.20
2023-03-03T01:18:02.119Z,11.68
2023-03-03T01:20:29.511Z,11.43
2023-03-03T01:22:56.890Z,12.05
2023-03-03T01:25:24.278Z,10.88
2023-03-03T01:27:51.649Z,11.40
2023-03-03T01:30:19.117Z,11.35
2023-03-03T01:32:47.791Z,12.98
2023-03-03T01:35:15.189Z,10.38
2023-03-03T01:37:42.572Z,11.00
2023-03-03T01:40:14.769Z,11.38
2023-03-03T01:42:42.141Z,11.32
2023-03-03T01:45:15.724Z,11.30
2023-03-03T01:47:44.006Z,12.48
2023-03-03T01:50:13.705Z,10.75
2023-03-03T01:52:42.152Z,12.95
2023-03-03T01:55:12.954Z,11.18
2023-03-03T01:57:41.515Z,11.95
2023-03-03T02:00:10.873Z,10.15
2023-03-03T02:02:38.262Z,11.43
2023-03-03T02:05:06.421Z,11.15
2023-03-03T02:07:35.133Z,11.30
2023-03-03T02:10:06.956Z,11.43
2023-03-03T02:12:35.569Z,11.20
2023-03-03T02:15:02.961Z,11.35
2023-03-03T02:17:30.332Z,12.88
2023-03-03T02:20:01.084Z,12.70
2023-03-03T02:22:36.049Z,11.52
2023-03-03T02:25:04.978Z,12.48
2023-03-03T02:27:33.674Z,10.98
2023-03-03T02:30:09.946Z,11.55
2023-03-03T02:32:37.411Z,10.77
2023-03-03T02:35:29.821Z,12.05
2023-03-03T02:37:59.072Z,12.18
2023-03-03T02:40:26.594Z,13.03
2023-03-03T02:42:55.291Z,11.27
2023-03-03T02:45:22.745Z,13.88
2023-03-03T02:47:50.644Z,11.57
2023-03-03T02:50:18.208Z,10.68
2023-03-03T02:52:45.576Z,11.30
2023-03-03T02:55:12.966Z,12.57
2023-03-03T02:57:40.385Z,11.20
2023-03-03T03:00:10.766Z,10.90
2023-03-03T03:02:38.147Z,11.50
2023-03-03T03:05:06.045Z,12.20
2023-03-03T03:07:33.455Z,11.57
2023-03-03T03:10:00.932Z,10.40
2023-03-03T03:12:28.317Z,10.80
2023-03-03T03:14:55.698Z,12.50
2023-03-03T03:17:24.383Z,11.45
2023-03-03T03:19:51.865Z,10.52
2023-03-03T03:22:19.482Z,9.90
2023-03-03T03:24:46.875Z,11.32
2023-03-03T03:27:14.251Z,12.63
2023-03-03T03:29:41.747Z,11.48
2023-03-03T03:32:09.165Z,11.05
2023-03-03T03:34:37.848Z,11.13
2023-03-03T03:37:05.222Z,12.02
2023-03-03T03:39:32.600Z,11.77
2023-03-03T03:42:00.027Z,10.45
2023-03-03T03:44:27.796Z,11.52
2023-03-03T03:46:55.198Z,10.52
2023-03-03T03:49:22.567Z,10.85
2023-03-03T03:51:51.273Z,10.93
2023-03-03T03:54:18.660Z,11.82
2023-03-03T03:56:46.036Z,11.10
2023-03-03T03:59:13.392Z,12.45
2023-03-03T04:01:40.757Z,10.45
2023-03-03T04:04:08.118Z,10.73
2023-03-03T04:06:35.810Z,9.93
2023-03-03T04:09:04.618Z,9.02
2023-03-03T04:11:32.083Z,11.50
2023-03-03T04:13:59.455Z,10.95
2023-03-03T04:16:26.845Z,9.98
2023-03-03T04:18:54.257Z,10.85
2023-03-03T04:21:21.631Z,9.88
2023-03-03T04:23:49.013Z,10.20
2023-03-03T04:26:17.700Z,9.43
2023-03-03T04:28:45.562Z,9.93
2023-03-03T04:31:13.026Z,10.32
2023-03-03T04:33:40.434Z,9.73
2023-03-03T04:36:08.008Z,9.90
2023-03-03T04:38:35.374Z,11.15
2023-03-03T04:41:02.745Z,10.13
2023-03-03T04:43:31.445Z,10.05
2023-03-03T04:45:58.890Z,8.27
2023-03-03T04:48:26.299Z,9.02
2023-03-03T04:50:53.666Z,9.10
2023-03-03T04:53:21.124Z,9.55
2023-03-03T04:55:51.058Z,10.52
2023-03-03T04:58:19.133Z,10.90
2023-03-03T05:00:48.015Z,9.27
2023-03-03T05:03:15.379Z,10.30
2023-03-03T05:05:42.840Z,10.40
2023-03-03T05:08:10.203Z,9.25
2023-03-03T05:10:37.587Z,9.27
2023-03-03T05:13:04.979Z,9.18
2023-03-03T05:15:32.353Z,10.55
2023-03-03T05:18:01.022Z,8.80
2023-03-03T05:20:28.396Z,9.27
2023-03-03T05:22:57.163Z,9.10
2023-03-03T05:25:24.587Z,8.27
2023-03-03T05:27:52.001Z,8.35
2023-03-03T05:30:19.456Z,9.13
2023-03-03T05:32:46.864Z,8.52
2023-03-03T05:35:15.557Z,8.85
2023-03-03T05:37:47.125Z,9.75
2023-03-03T05:40:15.215Z,8.93
2023-03-03T05:42:42.696Z,9.00
2023-03-03T05:45:11.034Z,7.15
2023-03-03T05:47:38.464Z,8.38
2023-03-03T05:50:06.362Z,8.98
2023-03-03T05:52:35.084Z,9.13
2023-03-03T05:55:02.462Z,8.27
2023-03-03T05:57:29.870Z,8.48
2023-03-03T05:59:57.267Z,8.25
2023-03-03T06:02:24.672Z,7.45
2023-03-03T06:04:52.054Z,8.38
2023-03-03T06:07:19.460Z,7.60
2023-03-03T06:09:48.157Z,7.35
2023-03-03T06:12:15.620Z,9.18
2023-03-03T06:14:42.986Z,7.45
2023-03-03T06:17:10.711Z,8.55
2023-03-03T06:19:38.331Z,7.22
2023-03-03T06:22:05.713Z,6.82
2023-03-03T06:24:33.092Z,6.57
2023-03-03T06:27:02.040Z,7.28
2023-03-03T06:29:29.718Z,6.80
2023-03-03T06:31:57.219Z,7.30
2023-03-03T06:34:24.679Z,7.47
2023-03-03T06:36:52.181Z,6.80
2023-03-03T06:39:19.547Z,6.75
2023-03-03T06:41:46.946Z,7.15
2023-03-03T06:44:15.627Z,6.95
2023-03-03T06:46:43.006Z,6.40
2023-03-03T06:49:10.375Z,7.82
2023-03-03T06:51:39.771Z,6.38
2023-03-03T06:54:11.285Z,6.88
2023-03-03T06:56:38.831Z,9.65
2023-03-03T06:59:07.614Z,14.40
2023-03-03T07:01:36.978Z,16.92
2023-03-03T07:04:08.770Z,16.65
2023-03-03T07:06:36.163Z,19.48
2023-03-03T07:09:08.953Z,16.58
2023-03-03T07:11:39.508Z,16.55
2023-03-03T07:14:07.031Z,14.10
2023-03-03T07:16:35.726Z,15.13
2023-03-03T07:19:03.935Z,16.88
2023-03-03T07:21:32.657Z,13.75
2023-03-03T07:24:00.249Z,14.38
2023-03-03T07:26:30.718Z,14.88
2023-03-03T07:28:59.549Z,17.52
2023-03-03T07:31:29.424Z,15.65
2023-03-03T07:33:58.156Z,13.70
2023-03-03T07:36:28.580Z,12.82
2023-03-03T07:38:56.456Z,11.93
2023-03-03T07:41:24.305Z,11.90
2023-03-03T07:43:55.006Z,12.05
2023-03-03T07:46:30.906Z,12.27
2023-03-03T07:48:59.964Z,11.70
2023-03-03T07:51:29.004Z,11.68
2023-03-03T07:54:16.871Z,12.77
2023-03-03T07:56:44.678Z,11.43
2023-03-03T07:59:20.998Z,9.60
2023-03-03T08:01:49.686Z,9.75
2023-03-03T08:04:20.861Z,12.57
2023-03-03T08:06:52.923Z,10.70
2023-03-03T08:09:48.041Z,10.50
2023-03-03T08:12:34.981Z,9.27
2023-03-03T08:15:23.049Z,11.25
2023-03-03T08:17:51.324Z,11.35
2023-03-03T08:20:50.353Z,9.38
2023-03-03T08:23:18.674Z,11.00
2023-03-03T08:25:46.168Z,8.13
2023-03-03T08:28:13.982Z,10.35
2023-03-03T08:30:41.743Z,9.90
2023-03-03T08:33:09.140Z,9.27
2023-03-03T08:35:36.569Z,9.85
2023-03-03T08:38:05.812Z,9.52
2023-03-03T08:40:33.410Z,10.90
2023-03-03T08:43:00.907Z,9.10
2023-03-03T08:45:28.291Z,9.07
2023-03-03T08:47:55.951Z,10.32
2023-03-03T08:50:23.371Z,10.00
2023-03-03T08:52:50.920Z,8.65
2023-03-03T08:55:19.836Z,9.20
2023-03-03T08:57:47.240Z,11.98
2023-03-03T09:00:16.216Z,9.10
2023-03-03T09:02:43.611Z,8.85
2023-03-03T09:05:11.898Z,8.25
2023-03-03T09:07:39.378Z,7.82
2023-03-03T09:10:07.775Z,9.50
2023-03-03T09:12:37.354Z,8.68
2023-03-03T09:15:14.397Z,8.10
2023-03-03T09:17:41.790Z,8.35
2023-03-03T09:20:22.416Z,8.00
2023-03-03T09:22:49.843Z,8.77
2023-03-03T09:25:22.842Z,8.05
2023-03-03T09:27:53.335Z,10.07
2023-03-03T09:30:31.193Z,8.73
2023-03-03T09:32:58.572Z,8.55
2023-03-03T09:35:30.791Z,8.02
2023-03-03T09:37:58.185Z,7.35
2023-03-03T09:40:25.417Z,7.43
2023-03-03T09:43:00.566Z,6.93
2023-03-03T09:45:35.619Z,6.63
2023-03-03T09:48:17.010Z,7.32
2023-03-03T09:50:48.984Z,7.88
2023-03-03T09:53:21.529Z,7.28
2023-03-03T09:55:51.423Z,6.97
2023-03-03T09:58:56.726Z,7.97
2023-03-03T10:01:34.209Z,7.45
2023-03-03T10:04:12.077Z,7.30
2023-03-03T10:06:40.363Z,8.57
2023-03-03T10:09:31.726Z,6.90
2023-03-03T10:12:00.659Z,8.35
2023-03-03T10:15:00.289Z,7.00
2023-03-03T10:17:36.560Z,7.32
2023-03-03T10:20:12.539Z,7.47
2023-03-03T10:22:43.033Z,7.70
2023-03-03T10:25:17.927Z,8.70
2023-03-03T10:27:52.272Z,6.85
2023-03-03T10:30:38.392Z,7.38
2023-03-03T10:33:10.111Z,7.40
2023-03-03T10:35:42.717Z,7.95
2023-03-03T10:38:25.768Z,8.20
2023-03-03T10:40:55.470Z,7.55
2023-03-03T10:43:32.180Z,8.20
2023-03-03T10:46:13.595Z,7.10
2023-03-03T10:48:47.498Z,7.93
2023-03-03T10:51:21.799Z,7.15
2023-03-03T10:53:53.321Z,7.47
2023-03-03T10:56:27.440Z,7.85
2023-03-03T10:59:01.062Z,6.75
2023-03-03T11:01:37.005Z,7.55
2023-03-03T11:04:40.251Z,7.40
2023-03-03T11:07:08.647Z,8.23
2023-03-03T11:09:42.395Z,5.78
2023-03-03T11:12:17.452Z,6.43
2023-03-03T11:14:48.955Z,6.82
2023-03-03T11:17:20.149Z,7.10
2023-03-03T11:19:54.385Z,6.20
2023-03-03T11:22:29.433Z,6.18
2023-03-03T11:25:02.361Z,6.95
2023-03-03T11:27:46.309Z,6.30
2023-03-03T11:30:21.342Z,5.60
2023-03-03T11:32:51.819Z,6.55
2023-03-03T11:35:22.563Z,5.95
2023-03-03T11:37:55.716Z,6.45
2023-03-03T11:40:25.625Z,6.15
2023-03-03T11:43:01.252Z,6.00
2023-03-03T11:45:30.699Z,7.38
2023-03-03T11:48:00.882Z,5.47
2023-03-03T11:53:02.151Z,5.43
2023-03-03T11:55:31.675Z,5.60
2023-03-03T11:58:03.012Z,5.43
2023-03-03T12:00:31.365Z,5.18
2023-03-03T12:03:28.897Z,5.47
2023-03-03T12:05:57.962Z,5.40
2023-03-03T12:08:36.217Z,5.72
2023-03-03T12:11:05.846Z,4.85
2023-03-03T12:13:39.176Z,4.97
2023-03-03T12:16:10.011Z,6.07
2023-03-03T12:18:46.460Z,4.53
2023-03-03T12:21:24.173Z,4.93
2023-03-03T12:23:57.866Z,4.75
2023-03-03T12:26:27.933Z,4.80
2023-03-03T12:28:56.391Z,5.20
2023-03-03T12:31:35.125Z,5.78
2023-03-03T12:34:05.432Z,5.18
2023-03-03T12:39:06.822Z,4.70
2023-03-03T12:41:36.778Z,4.90
2023-03-03T12:44:07.618Z,4.47
2023-03-03T12:46:41.844Z,4.63
2023-03-03T12:49:10.656Z,4.80
2023-03-03T12:51:43.866Z,4.10
2023-03-03T12:54:41.504Z,4.20
2023-03-03T12:57:14.912Z,6.10
2023-03-03T12:59:45.340Z,4.07
2023-03-03T13:02:23.228Z,4.47
2023-03-03T13:04:54.369Z,3.60
2023-03-03T13:07:23.686Z,4.28
2023-03-03T13:10:09.117Z,3.87
2023-03-03T13:12:40.297Z,3.63
2023-03-03T13:15:15.953Z,4.03
2023-03-03T13:17:49.429Z,3.40
2023-03-03T13:20:23.123Z,4.28
2023-03-03T13:22:52.107Z,4.45
2023-03-03T13:25:36.090Z,5.25
2023-03-03T13:28:06.047Z,4.10
2023-03-03T13:30:34.768Z,3.85
2023-03-03T13:33:03.921Z,4.45
2023-03-03T13:35:38.867Z,3.47
2023-03-03T13:38:06.369Z,5.20
2023-03-03T13:40:41.823Z,4.47
2023-03-03T13:43:11.614Z,4.63
2023-03-03T13:45:44.560Z,3.97
2023-03-03T13:48:16.479Z,4.32
2023-03-03T13:50:48.091Z,5.45
2023-03-03T13:53:29.572Z,4.03
2023-03-03T13:55:59.992Z,4.68
2023-03-03T13:58:34.332Z,3.75
2023-03-03T14:01:02.755Z,3.85
2023-03-03T14:03:59.013Z,4.30
2023-03-03T14:06:28.338Z,4.57
2023-03-03T14:09:23.003Z,4.20
2023-03-03T14:11:52.249Z,3.90
2023-03-03T14:14:29.241Z,5.50
2023-03-03T14:16:58.110Z,3.72
2023-03-03T14:19:27.413Z,3.60
2023-03-03T14:22:05.566Z,4.30
2023-03-03T14:24:36.374Z,3.50
2023-03-03T14:27:08.020Z,3.72
2023-03-03T14:29:36.250Z,3.67
2023-03-03T14:32:04.179Z,3.90
2023-03-03T14:34:37.098Z,4.35
2023-03-03T14:37:22.975Z,4.13
2023-03-03T14:40:02.686Z,5.38
2023-03-03T14:42:34.906Z,3.88
2023-03-03T14:45:04.567Z,3.50
2023-03-03T14:47:32.032Z,5.47
2023-03-03T14:50:00.223Z,4.45
2023-03-03T14:52:29.884Z,4.40
2023-03-03T14:54:58.206Z,4.65
2023-03-03T14:57:46.041Z,5.10
2023-03-03T15:00:31.121Z,4.40
2023-03-03T15:03:02.973Z,4.60
2023-03-03T15:05:31.245Z,4.35
2023-03-03T15:08:10.061Z,4.18
2023-03-03T15:13:13.676Z,4.75
2023-03-03T15:15:44.339Z,4.75
2023-03-03T15:18:13.280Z,4.68
2023-03-03T15:20:41.965Z,4.28
2023-03-03T15:23:19.545Z,4.82
2023-03-03T15:25:53.780Z,5.38
2023-03-03T15:28:25.884Z,4.38
2023-03-03T15:30:54.506Z,4.72
2023-03-03T15:33:24.070Z,4.13
2023-03-03T15:35:51.833Z,4.05
2023-03-03T15:38:22.582Z,4.43
2023-03-03T15:40:51.176Z,4.82
2023-03-03T15:43:22.041Z,4.85
2023-03-03T15:45:52.574Z,5.28
2023-03-03T15:48:35.421Z,4.88
2023-03-03T15:51:04.575Z,5.65
2023-03-03T15:53:35.940Z,6.18
2023-03-03T15:56:05.701Z,5.38
2023-03-03T15:58:50.979Z,4.57
2023-03-03T16:01:20.879Z,5.18
2023-03-03T16:03:48.712Z,4.97
2023-03-03T16:06:16.256Z,6.13
2023-03-03T16:08:45.792Z,5.80
2023-03-03T16:11:13.502Z,6.05
2023-03-03T16:13:42.875Z,5.63
2023-03-03T16:16:13.105Z,6.00
2023-03-03T16:18:45.093Z,6.65
2023-03-03T16:21:17.746Z,6.72
2023-03-03T16:23:47.168Z,7.88
2023-03-03T16:26:16.911Z,8.65
2023-03-03T16:28:50.939Z,7.72
2023-03-03T16:31:18.492Z,8.48
2023-03-03T16:33:49.606Z,8.95
2023-03-03T16:36:22.278Z,9.25
2023-03-03T16:38:50.798Z,10.38
2023-03-03T16:41:19.838Z,9.85
2023-03-03T16:43:59.803Z,9.63
2023-03-03T16:46:29.951Z,10.65
2023-03-03T16:51:27.431Z,10.88
2023-03-03T16:53:56.422Z,10.48
2023-03-03T16:56:24.149Z,11.27
2023-03-03T16:58:55.126Z,11.70
2023-03-03T17:01:23.591Z,11.30
2023-03-03T17:03:57.343Z,11.20
2023-03-03T17:06:27.592Z,12.88
2023-03-03T17:11:25.817Z,12.75
2023-03-03T17:13:55.813Z,15.05
2023-03-03T17:16:23.414Z,14.68
2023-03-03T17:18:53.562Z,14.75
2023-03-03T17:23:52.683Z,15.73
2023-03-03T17:26:26.909Z,15.77
2023-03-03T17:28:57.175Z,17.30
2023-03-03T17:31:25.529Z,17.55
2023-03-03T17:33:57.279Z,16.23
2023-03-03T17:36:27.492Z,17.90
2023-03-03T17:41:22.541Z,15.55
2023-03-03T17:43:53.084Z,17.17
2023-03-03T17:46:23.525Z,17.77
2023-03-03T17:49:09.476Z,17.15
2023-03-03T17:51:39.882Z,17.15
2023-03-03T17:54:21.988Z,18.50
2023-03-03T17:56:50.416Z,16.23
2023-03-03T17:59:22.056Z,17.08
2023-03-03T18:01:51.692Z,16.38
2023-03-03T18:04:36.627Z,13.70
2023-03-03T18:07:16.640Z,14.90
2023-03-03T18:09:47.548Z,16.38
2023-03-03T18:12:16.068Z,17.15
2023-03-03T18:15:01.202Z,16.83
2023-03-03T18:17:40.467Z,15.13
2023-03-03T18:20:34.593Z,15.80
2023-03-03T18:23:19.907Z,15.70
2023-03-03T18:25:55.071Z,17.23
2023-03-03T18:28:22.660Z,13.55
2023-03-03T18:30:54.323Z,15.77
2023-03-03T18:33:33.330Z,14.90
2023-03-03T18:36:08.827Z,15.38
2023-03-03T18:38:46.087Z,14.35
2023-03-03T18:41:13.429Z,14.25
2023-03-03T18:43:41.562Z,14.20
2023-03-03T18:46:09.091Z,13.98
2023-03-03T18:48:50.827Z,14.10
2023-03-03T18:51:38.862Z,14.90
2023-03-03T18:54:07.020Z,16.08
2023-03-03T18:56:43.169Z,13.43
2023-03-03T18:59:10.369Z,14.23
2023-03-03T19:01:42.739Z,14.90
2023-03-03T19:04:21.268Z,13.13
2023-03-03T19:07:09.867Z,13.05
2023-03-03T19:09:52.416Z,14.50
2023-03-03T19:12:19.669Z,15.57
2023-03-03T19:14:47.245Z,14.15
2023-03-03T19:17:33.409Z,15.27
2023-03-03T19:20:03.272Z,15.75
2023-03-03T19:22:30.771Z,18.65
2023-03-03T19:25:17.270Z,15.93
2023-03-03T19:27:44.638Z,17.45
2023-03-03T19:30:20.813Z,17.63
2023-03-03T19:33:02.946Z,18.65
2023-03-03T19:35:33.931Z,19.27
2023-03-03T19:38:03.399Z,18.95
2023-03-03T19:40:32.123Z,18.98
2023-03-03T19:43:01.827Z,19.58
2023-03-03T19:45:31.640Z,19.38
2023-03-03T19:48:01.442Z,18.42
2023-03-03T19:50:35.885Z,20.27
2023-03-03T19:53:05.682Z,20.13
2023-03-03T19:55:35.509Z,20.95
2023-03-03T19:58:07.601Z,20.50
2023-03-03T20:00:36.089Z,22.63
2023-03-03T20:03:09.821Z,20.40
2023-03-03T20:05:39.497Z,21.67
2023-03-03T20:08:08.570Z,23.35
2023-03-03T20:10:39.940Z,22.30
2023-03-03T20:13:09.577Z,21.70
2023-03-03T20:15:41.075Z,20.85
2023-03-03T20:18:14.045Z,23.15
2023-03-03T20:20:57.812Z,26.13
2023-03-03T20:23:26.237Z,23.80
2023-03-03T20:25:53.995Z,22.52
2023-03-03T20:28:27.534Z,24.25
2023-03-03T20:30:57.234Z,22.42
2023-03-03T20:33:27.945Z,22.40
2023-03-03T20:35:57.255Z,21.13
2023-03-03T20:38:27.845Z,19.20
2023-03-03T20:40:56.625Z,21.92
2023-03-03T20:43:27.257Z,20.45
2023-03-03T20:45:56.628Z,22.13
2023-03-03T20:48:27.495Z,18.98
2023-03-03T20:50:56.078Z,21.52
2023-03-03T20:53:26.646Z,19.45
2023-03-03T20:55:57.361Z,18.50
2023-03-03T20:58:25.709Z,20.90
2023-03-03T21:00:53.895Z,17.98
2023-03-03T21:03:22.076Z,19.65
2023-03-03T21:05:56.434Z,20.15
2023-03-03T21:08:31.528Z,18.30
2023-03-03T21:10:58.716Z,17.48
2023-03-03T21:13:26.885Z,18.25
2023-03-03T21:15:57.204Z,17.88
2023-03-03T21:18:24.717Z,17.67
2023-03-03T21:20:51.928Z,17.90
2023-03-03T21:23:20.896Z,17.80
2023-03-03T21:25:51.989Z,17.98
2023-03-03T21:28:20.103Z,19.23
2023-03-03T21:31:00.461Z,17.40
2023-03-03T21:33:40.641Z,17.80
2023-03-03T21:38:35.255Z,17.90
2023-03-03T21:41:03.768Z,18.40
2023-03-03T21:43:33.965Z,16.95
2023-03-03T21:48:28.316Z,16.20
2023-03-03T21:50:55.494Z,17.98
2023-03-03T21:53:23.645Z,18.83
2023-03-03T21:55:50.890Z,17.25
2023-03-03T21:58:19.398Z,15.95
2023-03-03T22:00:46.623Z,16.50
2023-03-03T22:03:15.200Z,14.75
2023-03-03T22:05:42.457Z,17.08
2023-03-03T22:08:09.647Z,16.70
2023-03-03T22:10:36.835Z,14.98
2023-03-03T22:13:04.077Z,15.93
2023-03-03T22:15:33.753Z,16.05
2023-03-03T22:18:01.008Z,14.25
2023-03-03T22:20:28.198Z,14.52
2023-03-03T22:22:55.382Z,13.90
2023-03-03T22:25:22.600Z,13.57
2023-03-03T22:27:49.792Z,14.73
2023-03-03T22:30:17.277Z,14.68
2023-03-03T22:32:45.791Z,13.98
2023-03-03T22:35:13.024Z,16.42
2023-03-03T22:37:40.282Z,15.30
2023-03-03T22:40:08.058Z,15.10
2023-03-03T22:42:35.281Z,14.90
2023-03-03T22:45:02.483Z,15.63
2023-03-03T22:47:29.680Z,12.90
2023-03-03T22:49:58.182Z,13.52
2023-03-03T22:52:25.380Z,14.90
2023-03-03T22:54:52.586Z,13.95
2023-03-03T22:57:19.775Z,13.95
2023-03-03T22:59:46.983Z,15.93
2023-03-03T23:02:14.182Z,14.38
2023-03-03T23:04:41.455Z,14.02
2023-03-03T23:07:09.978Z,12.98
2023-03-03T23:09:37.214Z,12.13
2023-03-03T23:12:04.548Z,13.80
2023-03-03T23:14:31.747Z,14.02
2023-03-03T23:16:58.930Z,15.20
2023-03-03T23:19:26.125Z,13.77
2023-03-03T23:21:53.303Z,14.75
2023-03-03T23:24:21.799Z,11.98
2023-03-03T23:26:51.655Z,13.00
2023-03-03T23:29:18.974Z,12.23
2023-03-03T23:31:46.261Z,13.18
2023-03-03T23:34:13.470Z,11.63
2023-03-03T23:36:40.671Z,12.27
2023-03-03T23:39:07.929Z,14.25
2023-03-03T23:41:38.244Z,12.30
2023-03-03T23:44:05.448Z,11.98
2023-03-03T23:46:32.662Z,11.45
2023-03-03T23:49:01.927Z,10.90
2023-03-03T23:51:29.135Z,7.27
2023-03-03T23:53:56.322Z,12.73
2023-03-03T23:56:23.534Z,11.93
2023-03-03T23:58:52.049Z,10.77
